<?xml version="1.0" encoding="UTF-8" standalone="no" ?>
<gpx xmlns="http://www.topografix.com/GPX/1/1" xmlns:xsi="http://www.w3.org/2001/XMLSchema-instance" xsi:schemaLocation="http://www.topografix.com/GPX/1/1 http://www.topografix.com/GPX/1/1/gpx.xsd" version="1.1" creator="VisuGPX - https://www.visugpx.com">
  <metadata>
    <name>Saint léon</name>
    <desc><![CDATA[Sortie de Fondoubine à Saint Léon]]></desc>
  </metadata>
  <trk>
    <name><![CDATA[ACTIVE LOG115243]]></name>
    <trkseg>
      <trkpt lat="44.96635" lon="1.00667">
        <ele>280.906</ele>
        <time>2014-11-28T10:52:42Z</time>
      </trkpt>
      <trkpt lat="44.96635" lon="1.00667">
        <ele>277.301</ele>
        <time>2014-11-28T10:53:17Z</time>
      </trkpt>
      <trkpt lat="44.96635" lon="1.00667">
        <ele>274.248</ele>
        <time>2014-11-28T10:53:46Z</time>
      </trkpt>
      <trkpt lat="44.96635" lon="1.00668">
        <ele>272.262</ele>
        <time>2014-11-28T10:54:33Z</time>
      </trkpt>
      <trkpt lat="44.96626" lon="1.00662">
        <ele>271.219</ele>
        <time>2014-11-28T10:54:40Z</time>
      </trkpt>
      <trkpt lat="44.96624" lon="1.00664">
        <ele>269.083</ele>
        <time>2014-11-28T10:55:04Z</time>
      </trkpt>
      <trkpt lat="44.96624" lon="1.00664">
        <ele>266.007</ele>
        <time>2014-11-28T10:55:39Z</time>
      </trkpt>
      <trkpt lat="44.96624" lon="1.00664">
        <ele>262.997</ele>
        <time>2014-11-28T10:56:19Z</time>
      </trkpt>
      <trkpt lat="44.96624" lon="1.00664">
        <ele>259.66</ele>
        <time>2014-11-28T10:57:05Z</time>
      </trkpt>
      <trkpt lat="44.96624" lon="1.00664">
        <ele>256.654</ele>
        <time>2014-11-28T10:57:48Z</time>
      </trkpt>
      <trkpt lat="44.96623" lon="1.00664">
        <ele>253.648</ele>
        <time>2014-11-28T10:58:32Z</time>
      </trkpt>
      <trkpt lat="44.96623" lon="1.00664">
        <ele>250.539</ele>
        <time>2014-11-28T10:59:14Z</time>
      </trkpt>
      <trkpt lat="44.96623" lon="1.00663">
        <ele>247.479</ele>
        <time>2014-11-28T11:00:05Z</time>
      </trkpt>
      <trkpt lat="44.96623" lon="1.00663">
        <ele>244.454</ele>
        <time>2014-11-28T11:00:30Z</time>
      </trkpt>
      <trkpt lat="44.96623" lon="1.00663">
        <ele>241.408</ele>
        <time>2014-11-28T11:01:34Z</time>
      </trkpt>
      <trkpt lat="44.96623" lon="1.00663">
        <ele>238.395</ele>
        <time>2014-11-28T11:02:13Z</time>
      </trkpt>
      <trkpt lat="44.96623" lon="1.00663">
        <ele>238.334</ele>
        <time>2014-11-28T11:02:14Z</time>
      </trkpt>
      <trkpt lat="44.96622" lon="1.00663">
        <ele>235.096</ele>
        <time>2014-11-28T11:03:13Z</time>
      </trkpt>
    </trkseg>
  </trk>
</gpx>